Time;durP1;ratioP1;P1;durP2;ratioP2;P2;SDS_P1;SDS_P2;PMS_P1;PMS_P2;Temp;Humidity;BMP_temperature;BMP_pressure;BME280_temperature;BME280_humidity;BME280_pressure;Samples;Min_cycle;Max_cycle;Signal;HPM_P1;HPM_P2
2022/12/26 00:05:26;;;;;;;14.73;4.38;;;;;;;2.65;100.00;100012.25;5050493;28;20132;-40
2022/12/26 00:07:53;;;;;;;7.18;2.40;;;;;;;2.60;100.00;100026.03;5057204;28;20364;-42
2022/12/26 00:14:50;;;;;;;5.95;2.50;;;;;;;2.52;100.00;100034.97;5055261;28;20415;-41
2022/12/26 00:17:37;;;;;;;10.35;2.70;;;;;;;2.51;100.00;100036.13;5056230;28;20056;-42
2022/12/26 00:20:24;;;;;;;6.28;2.65;;;;;;;2.50;100.00;100048.16;5055666;28;20515;-41
2022/12/26 00:31:27;;;;;;;6.78;2.65;;;;;;;2.33;100.00;100051.53;5054086;28;20493;-40
2022/12/26 00:33:54;;;;;;;9.82;2.67;;;;;;;2.30;100.00;100059.56;5038023;28;20072;-40
2022/12/26 00:40:52;;;;;;;10.48;2.60;;;;;;;2.28;100.00;100086.34;5054734;28;20441;-41
2022/12/26 00:43:39;;;;;;;7.47;2.42;;;;;;;2.25;100.00;100084.25;5056263;28;20037;-43
2022/12/26 00:50:27;;;;;;;5.97;2.72;;;;;;;2.21;100.00;100096.88;5052230;28;20116;-42
2022/12/26 00:57:11;;;;;;;5.15;2.53;;;;;;;2.18;100.00;100124.78;5053968;28;20033;-41
2022/12/26 01:00:38;;;;;;;9.52;2.20;;;;;;;2.16;100.00;100132.47;5056165;28;20041;-41
2022/12/26 01:03:25;;;;;;;9.95;3.22;;;;;;;2.16;100.00;100129.75;5054826;28;20506;-41
2022/12/26 01:10:23;;;;;;;10.23;3.15;;;;;;;2.12;100.00;100128.75;5045008;28;20068;-42
2022/12/26 01:13:11;;;;;;;8.27;2.78;;;;;;;2.16;100.00;100157.06;5054271;28;20041;-42
2022/12/26 01:15:37;;;;;;;8.13;2.70;;;;;;;2.16;100.00;100157.06;5056017;28;20045;-43
2022/12/26 01:18:05;;;;;;;8.48;3.53;;;;;;;2.19;100.00;100170.94;5055378;28;20045;-41
2022/12/26 01:20:32;;;;;;;12.88;3.92;;;;;;;2.21;100.00;100181.53;5055104;28;20041;-42
2022/12/26 01:30:53;;;;;;;7.50;2.58;;;;;;;2.20;100.00;100182.63;5050416;28;20083;-44
2022/12/26 01:34:12;;;;;;;7.38;2.42;;;;;;;2.25;100.00;100188.81;5056004;28;20149;-41
2022/12/26 01:56:35;;;;;;;8.27;2.65;;;;;;;2.48;100.00;100219.78;5048468;28;20032;-41
2022/12/26 01:59:27;;;;;;;8.02;3.67;;;;;;;2.52;100.00;100219.94;5054805;28;20049;-42
2022/12/26 02:06:21;;;;;;;5.32;2.42;;;;;;;2.56;100.00;100253.78;5041394;28;20041;-41
2022/12/26 02:33:09;;;;;;;9.35;2.67;;;;;;;2.49;100.00;100295.13;5050533;28;20051;-41
2022/12/26 02:39:45;;;;;;;8.55;2.42;;;;;;;2.46;100.00;100306.69;5041278;28;20060;-41
2022/12/26 03:36:34;;;;;;;13.40;3.35;;;;;;;1.96;100.00;100327.50;5031334;28;20387;-40
2022/12/26 04:44:57;;;;;;;4.40;1.27;;;;;;;1.64;100.00;100366.47;4990846;28;20054;-43
2022/12/26 04:47:33;;;;;;;4.97;1.10;;;;;;;1.63;100.00;100362.16;4992467;28;20049;-42
2022/12/26 04:50:18;;;;;;;6.43;0.80;;;;;;;1.64;100.00;100362.97;4992350;28;20461;-40
2022/12/26 04:52:59;;;;;;;1.52;1.08;;;;;;;1.63;100.00;100362.16;4995642;28;20038;-42
2022/12/26 04:55:29;;;;;;;4.38;1.25;;;;;;;1.64;100.00;100368.44;4996273;28;20399;-42
2022/12/26 04:57:56;;;;;;;4.57;1.65;;;;;;;1.63;100.00;100366.78;4996898;28;20050;-41
2022/12/26 05:00:26;;;;;;;2.75;0.93;;;;;;;1.65;100.00;100365.38;4994627;28;20049;-41
2022/12/26 05:12:23;;;;;;;6.50;1.52;;;;;;;1.67;100.00;100378.72;4995975;28;20445;-41
2022/12/26 05:15:10;;;;;;;5.97;1.23;;;;;;;1.65;100.00;100370.84;4982598;28;20050;-40
2022/12/26 05:39:47;;;;;;;3.22;0.68;;;;;;;1.58;100.00;100397.69;4986949;28;20088;-41
2022/12/26 05:42:14;;;;;;;1.08;0.63;;;;;;;1.56;100.00;100391.69;4996052;28;20042;-41
2022/12/26 05:44:40;;;;;;;5.47;1.58;;;;;;;1.56;100.00;100393.63;4995133;28;20505;-42
2022/12/26 05:47:07;;;;;;;3.88;0.60;;;;;;;1.57;100.00;100395.25;4996063;28;20089;-43
2022/12/26 05:49:34;;;;;;;2.38;0.50;;;;;;;1.57;100.00;100401.50;4993840;28;20042;-44
2022/12/26 05:52:01;;;;;;;7.47;1.45;;;;;;;1.56;100.00;100399.88;4993337;28;20042;-41
2022/12/26 05:54:27;;;;;;;5.72;0.95;;;;;;;1.58;100.00;100405.06;4996396;28;20057;-41
2022/12/26 05:56:54;;;;;;;3.50;0.90;;;;;;;1.57;100.00;100406.97;4996015;28;20042;-41
2022/12/26 05:59:21;;;;;;;14.57;1.73;;;;;;;1.56;100.00;100405.34;4994831;28;20048;-41
2022/12/26 06:01:47;;;;;;;4.28;0.50;;;;;;;1.57;100.00;100411.63;4994759;28;20071;-41
2022/12/26 06:04:14;;;;;;;6.45;2.42;;;;;;;1.59;100.00;100409.44;4993598;28;20046;-41
2022/12/26 06:06:41;;;;;;;3.97;0.47;;;;;;;1.59;100.00;100415.66;4991029;28;20514;-41
2022/12/26 06:16:39;;;;;;;1.27;0.63;;;;;;;1.58;100.00;100411.34;4993695;28;20082;-41
2022/12/26 06:30:41;;;;;;;3.90;0.80;;;;;;;1.60;100.00;100427.41;4987170;28;20046;-41
2022/12/26 06:33:28;;;;;;;6.03;0.90;;;;;;;1.59;100.00;100429.31;4994638;28;20053;-42
2022/12/26 06:36:18;;;;;;;1.80;0.65;;;;;;;1.60;100.00;100436.41;4981916;28;20057;-42
2022/12/26 06:38:45;;;;;;;4.60;0.70;;;;;;;1.61;100.00;100431.75;4993480;28;20070;-41
2022/12/26 06:41:15;;;;;;;4.57;0.60;;;;;;;1.61;100.00;100429.84;4995322;28;20431;-41
2022/12/26 06:44:02;;;;;;;3.63;0.68;;;;;;;1.62;100.00;100434.19;4992424;28;20057;-42
2022/12/26 06:46:49;;;;;;;2.78;1.00;;;;;;;1.62;100.00;100434.19;4991901;28;20496;-41
2022/12/26 06:49:15;;;;;;;3.40;0.90;;;;;;;1.63;100.00;100426.81;4995297;28;20074;-42
2022/12/26 06:55:32;;;;;;;2.47;0.40;;;;;;;1.62;100.00;100453.28;4992589;28;20149;-41
2022/12/26 06:57:59;;;;;;;10.23;0.95;;;;;;;1.62;100.00;100456.00;4992934;28;20052;-41
2022/12/26 07:00:26;;;;;;;3.72;0.60;;;;;;;1.63;100.00;100449.47;4992518;28;20046;-41
2022/12/26 07:03:09;;;;;;;1.80;1.02;;;;;;;1.64;100.00;100453.78;4994487;28;20397;-43
2022/12/26 07:09:25;;;;;;;3.90;0.60;;;;;;;1.66;100.00;100464.44;4984686;28;20073;-41
2022/12/26 07:11:59;;;;;;;4.65;0.98;;;;;;;1.67;100.00;100466.03;4983159;28;20129;-41
2022/12/26 07:26:17;;;;;;;6.53;0.63;;;;;;;1.68;100.00;100473.94;4991622;28;20070;-41
2022/12/26 07:29:04;;;;;;;3.65;0.68;;;;;;;1.68;100.00;100489.50;4992483;28;20047;-43
2022/12/26 07:48:40;;;;;;;3.70;0.80;;;;;;;1.64;100.00;100489.25;4983934;28;20086;-41
2022/12/26 07:51:07;;;;;;;2.80;0.47;;;;;;;1.63;100.00;100482.19;4983868;28;20102;-41
2022/12/26 07:54:12;;;;;;;10.35;0.80;;;;;;;1.63;100.00;100500.47;4994056;28;20050;-42
2022/12/26 07:56:40;;;;;;;6.47;0.57;;;;;;;1.62;100.00;100490.66;4990349;28;20048;-42
2022/12/26 07:59:18;;;;;;;3.28;0.68;;;;;;;1.60;100.00;100496.44;4992753;28;20050;-40
2022/12/26 08:01:44;;;;;;;4.65;0.80;;;;;;;1.60;100.00;100501.06;4992537;28;20470;-40
2022/12/26 08:12:03;;;;;;;1.75;0.90;;;;;;;1.56;100.00;100513.69;4980235;28;20049;-41
2022/12/26 08:19:03;;;;;;;6.97;0.85;;;;;;;1.53;100.00;100517.81;4987439;28;20105;-43
2022/12/26 08:21:50;;;;;;;4.90;0.52;;;;;;;1.54;100.00;100519.41;4991305;28;20053;-42
2022/12/26 08:31:57;;;;;;;3.03;0.80;;;;;;;1.58;100.00;100520.47;4994789;28;20134;-40
2022/12/26 08:34:24;;;;;;;1.95;0.75;;;;;;;1.60;100.00;100526.44;4992551;28;20045;-42
2022/12/26 08:36:51;;;;;;;2.63;0.50;;;;;;;1.62;100.00;100524.22;4990397;28;20069;-41
2022/12/26 08:47:35;;;;;;;3.90;0.57;;;;;;;1.72;100.00;100535.00;4998592;28;20038;-41
2022/12/26 08:51:18;;;;;;;2.78;0.95;;;;;;;1.73;100.00;100531.19;4996192;28;20062;-42
2022/12/26 08:57:45;;;;;;;4.88;0.88;;;;;;;1.78;100.00;100547.50;4987098;28;20432;-40
2022/12/26 09:03:58;;;;;;;2.28;1.05;;;;;;;1.81;100.00;100552.38;4984676;28;20377;-41
2022/12/26 09:06:45;;;;;;;0.95;0.70;;;;;;;1.82;100.00;100543.09;4992939;28;20057;-41
2022/12/26 09:13:22;;;;;;;3.83;1.20;;;;;;;1.89;100.00;100550.09;4994877;28;20038;-42
2022/12/26 09:20:01;;;;;;;3.22;0.70;;;;;;;1.94;100.00;100569.13;4984829;28;20085;-41
2022/12/26 09:26:29;;;;;;;3.38;0.90;;;;;;;2.05;100.00;100576.09;4994913;28;20046;-40
2022/12/26 09:29:16;;;;;;;8.00;1.38;;;;;;;2.09;100.00;100579.88;4995713;28;20038;-42
2022/12/26 09:32:04;;;;;;;2.63;1.48;;;;;;;2.14;100.00;100590.72;4994267;28;20508;-44
2022/12/26 09:34:47;;;;;;;4.60;0.93;;;;;;;2.16;100.00;100600.25;4996312;28;20089;-41
2022/12/26 09:37:14;;;;;;;3.50;1.20;;;;;;;2.22;100.00;100603.75;5011244;28;20140;-40
2022/12/26 09:59:44;;;;;;;3.47;0.90;;;;;;;2.31;100.00;100618.34;4986436;28;20038;-41
2022/12/26 10:02:31;;;;;;;3.45;1.00;;;;;;;2.32;100.00;100615.34;4986092;28;20054;-41
2022/12/26 10:05:24;;;;;;;4.53;0.80;;;;;;;2.33;100.00;100613.44;4995008;28;20077;-41
2022/12/26 10:23:21;;;;;;;3.75;2.25;;;;;;;2.41;100.00;100629.13;4995408;28;20037;-40
2022/12/26 10:26:11;;;;;;;5.35;1.27;;;;;;;2.44;100.00;100634.00;4992034;28;20038;-41
2022/12/26 10:29:01;;;;;;;7.63;1.17;;;;;;;2.45;100.00;100636.47;4994494;28;20060;-42
2022/12/26 10:31:42;;;;;;;4.82;1.05;;;;;;;2.48;100.00;100637.81;5002508;28;20483;-41
2022/12/26 10:34:30;;;;;;;2.80;1.37;;;;;;;2.52;100.00;100652.47;5032955;28;20038;-40
2022/12/26 10:37:40;;;;;;;3.05;0.73;;;;;;;2.57;100.00;100644.22;5018115;28;20180;-40
2022/12/26 10:44:28;;;;;;;3.03;1.10;;;;;;;2.66;100.00;100647.09;5021405;28;20120;-41
2022/12/26 10:47:04;;;;;;;3.15;1.10;;;;;;;2.70;100.00;100656.34;5034251;28;20064;-41
2022/12/26 10:49:30;;;;;;;1.63;1.02;;;;;;;2.73;100.00;100648.34;5024483;28;20045;-41
2022/12/26 10:51:59;;;;;;;4.28;0.93;;;;;;;2.76;100.00;100647.78;5033408;28;20038;-42
2022/12/26 10:54:28;;;;;;;4.22;2.05;;;;;;;2.80;100.00;100648.81;5033157;28;20046;-42
2022/12/26 10:56:57;;;;;;;2.80;1.13;;;;;;;2.84;100.00;100647.09;5033674;28;20610;-40
2022/12/26 11:03:18;;;;;;;3.70;1.40;;;;;;;2.92;100.00;100662.84;5029354;28;20037;-41
2022/12/26 11:05:48;;;;;;;4.10;0.93;;;;;;;2.94;100.00;100666.09;5032831;28;20095;-41
2022/12/26 11:16:08;;;;;;;8.65;2.00;;;;;;;3.05;100.00;100651.16;5029257;28;20049;-41
2022/12/26 11:22:46;;;;;;;6.22;1.45;;;;;;;3.14;100.00;100658.69;5030922;28;20042;-41
2022/12/26 11:33:48;;;;;;;7.43;4.60;;;;;;;3.20;100.00;100673.91;4988566;28;20057;-41
2022/12/26 11:36:15;;;;;;;4.45;2.42;;;;;;;3.20;100.00;100654.75;4994614;28;20046;-41
2022/12/26 11:43:06;;;;;;;8.43;3.78;;;;;;;3.21;100.00;100670.06;4987496;28;20045;-44
2022/12/26 11:45:41;;;;;;;13.90;5.72;;;;;;;3.22;100.00;100658.00;4993181;28;20461;-42
2022/12/26 11:51:41;;;;;;;15.80;4.72;;;;;;;3.24;100.00;100650.31;4991355;28;20050;-42
2022/12/26 11:54:32;;;;;;;6.00;2.25;;;;;;;3.25;100.00;100649.22;4994038;28;20053;-41
2022/12/26 11:57:26;;;;;;;11.95;6.03;;;;;;;3.26;100.00;100659.03;4991812;28;20404;-41
2022/12/26 12:08:52;;;;;;;10.60;4.95;;;;;;;3.31;100.00;100669.91;4995168;28;20117;-40
2022/12/26 12:11:48;;;;;;;11.65;4.70;;;;;;;3.33;100.00;100668.50;4995929;28;20042;-41
2022/12/26 12:18:28;;;;;;;4.82;2.83;;;;;;;3.40;100.00;100677.13;4985758;28;20042;-42
2022/12/26 12:25:13;;;;;;;5.57;1.65;;;;;;;3.44;100.00;100672.66;4996514;28;20077;-40
2022/12/26 12:31:45;;;;;;;5.45;1.42;;;;;;;3.50;100.00;100681.59;4992872;28;20035;-42
2022/12/26 12:34:28;;;;;;;7.85;2.20;;;;;;;3.49;100.00;100678.06;5016150;28;20037;-45
2022/12/26 12:37:29;;;;;;;5.38;2.67;;;;;;;3.52;100.00;100687.63;5017037;28;20487;-40
2022/12/26 12:40:36;;;;;;;5.03;1.77;;;;;;;3.53;100.00;100689.22;5014971;28;20042;-40
2022/12/26 12:43:21;;;;;;;7.13;2.05;;;;;;;3.55;100.00;100687.81;4964890;28;20054;-40
2022/12/26 12:50:33;;;;;;;7.95;2.45;;;;;;;3.57;100.00;100696.53;5012521;28;20042;-42
2022/12/26 13:01:00;;;;;;;2.60;1.20;;;;;;;3.61;100.00;100694.81;5014850;28;20125;-40
2022/12/26 13:03:44;;;;;;;6.60;1.00;;;;;;;3.62;100.00;100692.91;5016284;28;20038;-42
2022/12/26 13:11:02;;;;;;;3.47;1.30;;;;;;;3.68;100.00;100686.22;5006894;28;20412;-41
2022/12/26 13:14:01;;;;;;;5.00;1.23;;;;;;;3.71;100.00;100691.09;5005881;28;20510;-41
2022/12/26 13:28:15;;;;;;;3.03;1.40;;;;;;;3.90;100.00;100700.06;5015543;28;20052;-43
2022/12/26 13:31:02;;;;;;;3.15;0.93;;;;;;;3.93;100.00;100693.97;5011573;28;20042;-43
2022/12/26 13:33:30;;;;;;;1.42;1.00;;;;;;;3.97;100.00;100692.25;5031965;28;20060;-41
2022/12/26 13:51:51;;;;;;;3.55;0.98;;;;;;;4.30;100.00;100720.38;5034212;28;20080;-41
2022/12/26 13:54:47;;;;;;;5.07;1.63;;;;;;;4.34;99.97;100704.16;5025426;28;20041;-41
2022/12/26 13:57:44;;;;;;;4.00;1.85;;;;;;;4.33;99.84;100719.78;5023996;28;20411;-41
2022/12/26 14:00:50;;;;;;;3.50;2.58;;;;;;;4.24;99.86;100705.97;5032493;28;20180;-41
2022/12/26 14:03:47;;;;;;;8.50;4.80;;;;;;;4.25;99.64;100707.59;5035213;28;20053;-42
2022/12/26 14:06:30;;;;;;;16.73;7.43;;;;;;;4.32;99.88;100707.19;5035486;28;20042;-42
2022/12/26 14:09:22;;;;;;;21.58;10.35;;;;;;;4.42;100.00;100722.63;5035325;28;20140;-41
2022/12/26 14:20:48;;;;;;;6.63;4.78;;;;;;;4.63;99.51;100719.16;5026221;28;20049;-41
2022/12/26 14:24:31;;;;;;;9.02;5.40;;;;;;;4.66;99.01;100720.50;5026154;28;20037;-42
2022/12/26 14:27:11;;;;;;;12.38;5.10;;;;;;;4.62;99.12;100717.53;5034673;28;20042;-41
2022/12/26 14:33:37;;;;;;;7.15;2.40;;;;;;;4.56;99.13;100726.97;5004305;28;20471;-41
2022/12/26 14:44:20;;;;;;;;;;;;;;;4.45;98.96;100743.97;4995165;28;20031;-41
2022/12/26 14:54:31;;;;;;;1.48;1.10;;;;;;;4.36;99.13;100757.56;4993946;28;20046;-41
2022/12/26 15:12:18;;;;;;;10.73;5.88;;;;;;;4.23;99.11;100761.09;4991052;28;20045;-41
2022/12/26 15:15:00;;;;;;;6.05;4.03;;;;;;;4.15;99.20;100765.34;4933443;29;20071;-41
2022/12/26 15:17:49;;;;;;;7.63;3.42;;;;;;;4.10;99.06;100781.06;4942073;28;20096;-42
2022/12/26 15:23:42;;;;;;;18.83;9.85;;;;;;;3.99;99.18;100774.94;4983459;28;20046;-42
2022/12/26 15:26:29;;;;;;;16.77;7.18;;;;;;;3.96;99.29;100781.03;4993695;28;20042;-43
2022/12/26 15:29:16;;;;;;;10.23;3.42;;;;;;;3.93;99.08;100781.63;4993987;28;20038;-42
2022/12/26 15:35:47;;;;;;;6.45;3.35;;;;;;;3.84;99.39;100779.88;4991224;28;20109;-40
2022/12/26 15:38:32;;;;;;;10.68;7.63;;;;;;;3.81;99.24;100784.03;4992888;28;20508;-41
2022/12/26 15:41:25;;;;;;;8.45;4.20;;;;;;;3.81;99.24;100780.47;4993221;28;20046;-41
2022/12/26 15:44:38;;;;;;;12.85;6.18;;;;;;;3.76;99.21;100786.81;4992378;28;20042;-42
2022/12/26 15:55:17;;;;;;;5.68;3.92;;;;;;;3.67;99.38;100813.28;4986684;28;20034;-41
2022/12/26 16:01:35;;;;;;;8.20;3.55;;;;;;;3.62;99.25;100813.34;4991496;28;20046;-41
2022/12/26 16:04:06;;;;;;;5.72;3.08;;;;;;;3.59;99.30;100822.16;4993844;28;20497;-41
2022/12/26 16:15:08;;;;;;;6.80;3.00;;;;;;;3.45;99.52;100829.47;4979203;28;20038;-42
2022/12/26 16:24:35;;;;;;;12.93;7.65;;;;;;;3.33;99.42;100826.38;4992052;28;20038;-41
2022/12/26 16:40:13;;;;;;;12.18;6.65;;;;;;;3.17;99.28;100852.31;4984648;28;20043;-42
2022/12/26 16:42:54;;;;;;;11.15;5.78;;;;;;;3.16;99.79;100858.88;4992634;28;20042;-41
2022/12/26 16:45:22;;;;;;;10.75;5.57;;;;;;;3.14;99.88;100859.19;4993376;28;20520;-42
2022/12/26 16:51:51;;;;;;;13.95;5.20;;;;;;;3.10;99.90;100865.53;4995178;28;20042;-42
2022/12/26 16:58:26;;;;;;;9.88;4.55;;;;;;;3.07;99.73;100877.88;4994323;28;20049;-41
2022/12/26 17:01:12;;;;;;;9.13;4.30;;;;;;;3.05;99.81;100880.88;4995254;28;20089;-42
2022/12/26 17:12:06;;;;;;;9.63;3.90;;;;;;;2.97;100.00;100892.47;4983541;28;20472;-43
2022/12/26 17:15:01;;;;;;;9.50;5.32;;;;;;;2.95;100.00;100886.50;4995170;28;20039;-43
2022/12/26 17:21:31;;;;;;;8.05;3.55;;;;;;;2.91;100.00;100901.84;4990066;28;20094;-41
2022/12/26 17:35:24;;;;;;;11.43;5.97;;;;;;;2.87;100.00;100917.19;4988347;28;20050;-41
2022/12/26 17:52:50;;;;;;;8.57;3.97;;;;;;;2.92;100.00;100955.44;4986723;28;20042;-43
2022/12/26 17:55:37;;;;;;;10.98;5.15;;;;;;;2.94;100.00;100960.59;4985971;28;20054;-42
2022/12/26 17:58:24;;;;;;;8.77;4.60;;;;;;;2.93;100.00;100959.81;4989534;28;20049;-41
2022/12/26 18:01:31;;;;;;;7.43;4.05;;;;;;;2.90;100.00;100956.81;4993544;28;20050;-41
2022/12/26 18:04:00;;;;;;;12.30;4.90;;;;;;;2.89;100.00;100952.44;4998246;28;20085;-42
2022/12/26 18:10:23;;;;;;;17.30;5.88;;;;;;;2.84;100.00;100953.31;4983118;28;20026;-43
2022/12/26 18:13:14;;;;;;;9.90;5.50;;;;;;;2.81;100.00;100956.63;4985377;28;20104;-43
2022/12/26 18:23:52;;;;;;;20.10;11.00;;;;;;;2.81;100.00;100980.41;4993641;28;20030;-43
2022/12/26 18:26:35;;;;;;;14.65;7.22;;;;;;;2.81;100.00;100988.63;4993132;28;20457;-42
2022/12/26 18:29:02;;;;;;;8.77;4.78;;;;;;;2.81;100.00;100999.56;4994241;28;20042;-43
2022/12/26 18:35:41;;;;;;;6.10;3.25;;;;;;;2.78;100.00;101003.69;4989088;28;20051;-42
2022/12/26 18:38:16;;;;;;;;;;;;;;;2.77;100.00;101009.44;4996434;28;20514;-42
2022/12/26 18:40:45;;;;;;;6.32;3.42;;;;;;;2.78;100.00;101005.63;4995104;28;19921;-42
2022/12/26 18:43:53;;;;;;;5.05;3.33;;;;;;;2.79;100.00;101008.06;4994163;28;20042;-42
2022/12/26 18:46:25;;;;;;;8.95;3.67;;;;;;;2.82;100.00;101012.13;4993664;28;20495;-42
2022/12/26 18:53:12;;;;;;;7.38;3.97;;;;;;;2.84;100.00;101018.94;4983437;28;20031;-42
2022/12/26 18:55:39;;;;;;;9.15;5.00;;;;;;;2.82;100.00;101012.13;4993783;28;20048;-42
2022/12/26 18:58:56;;;;;;;11.25;4.97;;;;;;;2.79;100.00;101024.47;4989093;28;20424;-42
2022/12/26 19:01:42;;;;;;;8.98;4.47;;;;;;;2.78;100.00;101038.44;4989320;28;20046;-42
2022/12/26 19:04:13;;;;;;;13.90;4.45;;;;;;;2.76;100.00;101025.03;4990968;28;20048;-43
2022/12/26 19:06:40;;;;;;;12.90;4.20;;;;;;;2.75;100.00;101039.00;4991267;28;20978;-42
2022/12/26 19:09:11;;;;;;;12.77;4.43;;;;;;;2.73;100.00;101036.53;4992563;28;20049;-41
2022/12/26 19:11:57;;;;;;;10.57;4.72;;;;;;;2.71;100.00;101033.28;4990511;28;20407;-42
2022/12/26 19:14:27;;;;;;;16.27;6.80;;;;;;;2.69;100.00;101040.94;4990843;28;20038;-41
2022/12/26 19:16:53;;;;;;;13.05;5.63;;;;;;;2.67;100.00;101037.69;4990569;28;20045;-44
2022/12/26 19:19:20;;;;;;;16.58;7.20;;;;;;;2.66;100.00;101046.16;4990943;28;20141;-44
2022/12/26 19:21:47;;;;;;;13.23;5.68;;;;;;;2.66;100.00;101046.16;4984165;28;20050;-42
2022/12/26 19:24:13;;;;;;;13.05;6.93;;;;;;;2.62;100.00;101045.13;4989899;28;20096;-42
2022/12/26 19:26:40;;;;;;;10.98;5.38;;;;;;;2.60;100.00;101058.22;4990518;28;20046;-42
2022/12/26 19:29:08;;;;;;;11.27;6.47;;;;;;;2.59;100.00;101051.16;4991340;28;20081;-42
2022/12/26 19:31:35;;;;;;;11.95;6.10;;;;;;;2.56;100.00;101055.25;4991428;28;20034;-41
2022/12/26 19:34:01;;;;;;;15.50;6.82;;;;;;;2.55;100.00;101055.53;4992093;28;20046;-44
2022/12/26 19:36:28;;;;;;;12.70;6.18;;;;;;;2.53;100.00;101053.09;4989963;28;20049;-42
2022/12/26 19:38:55;;;;;;;22.90;12.70;;;;;;;2.54;100.00;101056.66;4990126;28;20046;-41
2022/12/26 19:41:22;;;;;;;23.27;11.25;;;;;;;2.53;100.00;101057.75;4991053;28;20378;-42
2022/12/26 19:43:57;;;;;;;22.50;8.32;;;;;;;2.50;100.00;101048.19;4990935;28;20062;-43
2022/12/26 19:46:25;;;;;;;17.25;9.93;;;;;;;2.50;100.00;101045.47;4990441;28;20121;-41
2022/12/26 19:48:52;;;;;;;20.38;8.77;;;;;;;2.50;100.00;101044.66;4991041;28;20046;-41
2022/12/26 19:51:20;;;;;;;20.85;8.80;;;;;;;2.47;100.00;101065.16;4990578;28;20380;-43
2022/12/26 19:53:47;;;;;;;28.58;9.38;;;;;;;2.45;100.00;101045.50;4990338;28;20054;-41
2022/12/26 19:56:17;;;;;;;21.40;10.50;;;;;;;2.44;100.00;101047.41;4983581;28;20137;-41
2022/12/26 19:58:44;;;;;;;28.63;11.85;;;;;;;2.43;100.00;101055.91;4989330;28;20047;-42
2022/12/26 20:01:18;;;;;;;24.05;10.27;;;;;;;2.40;100.00;101053.75;4989938;28;20141;-43
2022/12/26 20:03:45;;;;;;;25.90;10.98;;;;;;;2.39;100.00;101057.56;4979824;28;20046;-41
2022/12/26 20:06:20;;;;;;;27.33;10.95;;;;;;;2.38;100.00;101061.41;4990673;28;20046;-41
2022/12/26 20:09:13;;;;;;;18.90;9.02;;;;;;;2.35;100.00;101061.97;4991105;28;20046;-43
2022/12/26 20:11:43;;;;;;;13.60;6.32;;;;;;;2.33;100.00;101062.25;4989375;28;20053;-41
2022/12/26 20:14:13;;;;;;;29.20;12.43;;;;;;;2.33;100.00;101066.91;4992545;28;20381;-41
2022/12/26 20:16:40;;;;;;;25.80;10.18;;;;;;;2.31;100.00;101060.88;4991272;28;20050;-43
2022/12/26 20:19:27;;;;;;;18.30;7.25;;;;;;;2.30;100.00;101060.06;4989922;28;20448;-42
2022/12/26 20:21:55;;;;;;;29.88;12.13;;;;;;;2.28;100.00;101056.81;4991943;28;20051;-41
2022/12/26 20:24:22;;;;;;;28.60;13.52;;;;;;;2.29;100.00;101063.09;4993440;28;20428;-41
2022/12/26 20:26:49;;;;;;;52.13;22.30;;;;;;;2.27;100.00;101070.75;4995789;28;20101;-41
2022/12/26 20:29:16;;;;;;;33.65;15.70;;;;;;;2.27;100.00;101073.50;4992939;28;20050;-42
2022/12/26 20:31:42;;;;;;;31.35;14.90;;;;;;;2.27;100.00;101070.75;4993924;28;20054;-41
2022/12/26 20:34:10;;;;;;;27.02;13.27;;;;;;;2.26;100.00;101078.13;5000445;28;20076;-41
2022/12/26 20:36:38;;;;;;;20.05;9.15;;;;;;;2.26;100.00;101072.66;5033788;28;20034;-41
2022/12/26 20:39:10;;;;;;;22.05;10.13;;;;;;;2.26;100.00;101069.13;5034039;28;20152;-41
2022/12/26 20:41:37;;;;;;;27.63;12.57;;;;;;;2.26;100.00;101069.94;5033790;28;20041;-41
2022/12/26 20:44:04;;;;;;;26.35;12.45;;;;;;;2.28;100.00;101077.84;5034175;28;20045;-41
2022/12/26 20:46:32;;;;;;;13.00;6.88;;;;;;;2.25;100.00;101084.69;5032902;28;20034;-41
2022/12/26 20:49:08;;;;;;;16.38;7.10;;;;;;;2.24;100.00;101087.72;5033924;28;20046;-41
2022/12/26 20:51:37;;;;;;;13.10;6.57;;;;;;;2.25;100.00;101092.88;5033985;28;20047;-41
2022/12/26 20:54:09;;;;;;;14.25;5.72;;;;;;;2.25;100.00;101092.09;5033007;28;20052;-41
2022/12/26 20:56:38;;;;;;;17.55;7.57;;;;;;;2.23;100.00;101099.72;5016138;28;20128;-41
2022/12/26 20:59:18;;;;;;;15.63;6.43;;;;;;;2.22;100.00;101111.75;5034234;28;20058;-43
2022/12/26 21:01:45;;;;;;;14.77;5.90;;;;;;;2.21;100.00;101110.94;5031840;28;20065;-42
2022/12/26 21:04:19;;;;;;;13.93;6.00;;;;;;;2.20;100.00;101108.47;5024821;28;20595;-42
2022/12/26 21:06:46;;;;;;;10.73;5.57;;;;;;;2.21;100.00;101100.00;5016295;28;20124;-41
2022/12/26 21:09:13;;;;;;;15.77;7.90;;;;;;;2.22;100.00;101100.84;5033787;28;20048;-41
2022/12/26 21:11:41;;;;;;;19.30;8.38;;;;;;;2.21;100.00;101100.00;5032691;28;20045;-42
2022/12/26 21:14:15;;;;;;;16.25;7.40;;;;;;;2.21;100.00;101093.72;5035044;28;20450;-41
2022/12/26 21:16:53;;;;;;;9.93;4.55;;;;;;;2.19;100.00;101090.47;5033965;28;20076;-42
2022/12/26 21:19:22;;;;;;;11.07;5.05;;;;;;;2.19;100.00;101094.03;5032069;28;20045;-41
2022/12/26 21:22:02;;;;;;;10.48;5.28;;;;;;;2.16;100.00;101097.31;5033746;28;20133;-41
2022/12/26 21:24:31;;;;;;;11.20;4.60;;;;;;;2.14;100.00;101109.63;5032864;28;20049;-41
2022/12/26 21:26:58;;;;;;;10.40;4.45;;;;;;;2.13;100.00;101105.25;5031916;28;20049;-40
2022/12/26 21:29:28;;;;;;;10.45;4.55;;;;;;;2.11;100.00;101104.72;5034453;28;20037;-43
2022/12/26 21:31:55;;;;;;;8.60;5.25;;;;;;;2.11;100.00;101101.97;5015342;28;20985;-42
2022/12/26 21:34:25;;;;;;;9.95;4.88;;;;;;;2.10;100.00;101106.63;5032285;28;20488;-42
2022/12/26 21:39:46;;;;;;;14.43;4.85;;;;;;;2.08;100.00;101113.47;5032381;28;20532;-41
2022/12/26 21:42:13;;;;;;;8.50;4.07;;;;;;;2.05;100.00;101109.38;5031777;28;20490;-44
2022/12/26 21:44:43;;;;;;;7.18;3.63;;;;;;;2.05;100.00;101116.75;5033884;28;20045;-43
2022/12/26 21:47:11;;;;;;;9.48;4.45;;;;;;;2.04;100.00;101117.88;5031180;28;20046;-41
2022/12/26 21:49:37;;;;;;;11.38;4.28;;;;;;;2.02;100.00;101120.84;5031856;28;20049;-41
2022/12/26 21:52:05;;;;;;;9.52;4.07;;;;;;;2.02;100.00;101136.41;5031652;28;20053;-41
2022/12/26 21:57:57;;;;;;;11.68;4.55;;;;;;;2.02;100.00;101120.03;5031755;28;20045;-42
2022/12/26 22:00:24;;;;;;;10.38;4.30;;;;;;;2.00;100.00;101124.97;5033070;28;20522;-41
2022/12/26 22:05:38;;;;;;;12.90;5.35;;;;;;;1.97;100.00;101122.78;5021563;28;20049;-41
2022/12/26 22:08:25;;;;;;;10.75;4.85;;;;;;;1.96;100.00;101121.16;5031503;28;20049;-41
2022/12/26 22:13:41;;;;;;;18.13;7.43;;;;;;;1.95;100.00;101124.97;5020145;28;20056;-41
2022/12/26 22:16:10;;;;;;;12.35;5.57;;;;;;;1.94;100.00;101131.53;5031154;28;20053;-41
2022/12/26 22:18:44;;;;;;;12.53;4.77;;;;;;;1.93;100.00;101121.72;5032848;28;20045;-43
2022/12/26 22:21:41;;;;;;;8.85;5.13;;;;;;;1.91;100.00;101126.66;5031040;28;20052;-41
2022/12/26 22:24:09;;;;;;;10.45;5.53;;;;;;;1.91;100.00;101132.09;5032085;28;20103;-43
2022/12/26 22:26:36;;;;;;;13.82;7.95;;;;;;;1.89;100.00;101128.81;5031477;28;20087;-41
2022/12/26 22:29:02;;;;;;;17.88;6.82;;;;;;;1.88;100.00;101128.00;5031136;28;20439;-41
2022/12/26 22:31:35;;;;;;;20.83;8.32;;;;;;;1.85;100.00;101129.38;5032064;28;20087;-41
2022/12/26 22:34:15;;;;;;;23.92;12.23;;;;;;;1.85;100.00;101125.84;5031274;28;20381;-41
2022/12/26 22:36:42;;;;;;;18.75;9.70;;;;;;;1.85;100.00;101129.38;4993568;28;20065;-42
2022/12/26 22:39:26;;;;;;;16.92;6.40;;;;;;;1.83;100.00;101120.66;4991732;28;20034;-42
2022/12/26 22:41:52;;;;;;;13.40;5.15;;;;;;;1.84;100.00;101124.19;4992980;28;20051;-42
2022/12/26 22:45:17;;;;;;;10.45;5.70;;;;;;;1.86;100.00;101127.47;4991327;28;20042;-41
2022/12/26 22:54:58;;;;;;;9.13;5.38;;;;;;;1.84;100.00;101138.69;4996910;28;20064;-41
2022/12/26 22:57:24;;;;;;;10.00;5.05;;;;;;;1.83;100.00;101147.94;4992721;28;20388;-45
2022/12/26 22:59:51;;;;;;;9.75;5.32;;;;;;;1.82;100.00;101140.88;4989426;28;20512;-41
2022/12/26 23:03:13;;;;;;;9.10;5.78;;;;;;;1.81;100.00;101132.94;4990915;28;20048;-42
2022/12/26 23:05:41;;;;;;;15.07;5.65;;;;;;;1.79;100.00;101141.41;4992135;28;20137;-42
2022/12/26 23:08:14;;;;;;;14.68;5.80;;;;;;;1.78;100.00;101145.22;4991192;28;20050;-41